Veuillez saisir l'adresse e-mail associée à votre compte d'utilisateur. Votre identifiant vous sera envoyé à cette adresse.

METAR TAF

[Source: ADDS]
METAR
LFCR 150200Z AUTO 33011KT 9000 -SNRA SCT006/// BKN015/// OVC022/// ///TCU 02/02 Q1005 =
LFBA 150200Z AUTO 31016G27KT 280V340 9999 -RA SCT013 BKN019 BKN035 09/07 Q1006 =
LFSL 150200Z AUTO 25004KT 210V300 9999 FEW036 SCT076 OVC098 05/04 Q1004 =
LFLW 150200Z AUTO 29005KT 8000 -SNRA BKN009 BKN014 OVC031 02/01 Q1005 =
TAF
LFCR 142300Z 1500/1524 28020G35KT 9999 BKN018 TEMPO 1500/1505 3000 RA BKN005 BECMG 1503/1505 25010KT BECMG 1505/1507 BKN008 PROB30 TEMPO 1507/1513 -SHRA BECMG 1511/1513 SCT010 BKN020 TEMPO 1516/1522 4000 RA BKN004 PROB30 TEMPO 1516/1520 29015G25KT =
LFBA 141700Z 1418/1503 26009KT 9999 SCT030 BKN040 TEMPO 1418/1503 26015G25KT 4000 -SHRA BKN010 BKN018TCU =
LFSL 141700Z 1418/1503 25010KT 9999 BKN020 TEMPO 1418/1420 SHRA BKN012 SCT015TCU TEMPO 1422/1502 26016G28KT 4000 RA SCT006 BKN012 =
SR / SS: 07:23 / 16:15 UTC (LFCC 2017-12-15)